Weather History for Brookings, SD

Change the Weather History Date:

Sunday, February 17, 2013

  Actual Average Record
Temperature  
Mean Temperature 29 °F -  
Max Temperature 39 °F 28 °F 53 °F (2002)
Min Temperature 19 °F 13 °F -11 °F (2006)
Degree Days  
Heating Degree Days 36    
Moisture  
Dew Point 25 °F    
Average Humidity 84    
Maximum Humidity 100    
Minimum Humidity 70    
Precipitation  
Precipitation 0.00 in - - ()
Sea Level Pressure  
Sea Level Pressure 29.70 in    
Wind  
Wind Speed 11 mph (SSE)    
Max Wind Speed 21 mph    
Max Gust Speed 25 mph    
Visibility 9 miles    
Events      
Averages and records for this station are not official NWS values.
T = Trace of Precipitation, MM = Missing Value Source: NWS Daily Summary

Daily Weather History Graph

Daily Weather History Graph

Search for Another Location

Airport:

Trip Planner

Search our weather history database for the weather conditions in past years. The results will help you decide how hot, cold, wet, or windy it might be!

Date:

Astronomy

Feb. 17, 2013 Rise Set
Actual Time 7:23 AM CST 5:59 PM CST
Civil Twilight 6:53 AM CST 6:29 PM CST
Nautical Twilight 6:20 AM CST 7:03 PM CST
Astronomical Twilight 5:46 AM CST 7:36 PM CST
Moon 10:59 AM CST (2/17) 1:13 AM CST (2/17)
Length of Visible Light 11h 35m
Length of Day
10h 36m
Waxing Crescent, 49% of the Moon is Illuminated
Feb 17
Waxing Crescent
Feb 17
First Quarter
Feb 25
Full
Mar 4
Last Quarter
Mar 11
New

Hourly Weather History & Observations

Time (CST) Temp. Windchill Dew Point Humidity Pressure Visibility Wind Dir Wind Speed Gust Speed Precip Events Conditions
12:15 AM 23.0 °F 14.7 °F 21.2 °F 93% 29.96 in 10.0 mi ESE 6.9 mph - N/A   Overcast
12:35 AM 24.8 °F 16.9 °F 21.2 °F 86% 29.96 in 10.0 mi ESE 6.9 mph - N/A   Overcast
12:55 AM 24.8 °F 16.9 °F 21.2 °F 86% 29.96 in 10.0 mi ESE 6.9 mph - N/A   Overcast
1:15 AM 24.8 °F 15.3 °F 23.0 °F 93% 29.95 in 10.0 mi SE 9.2 mph - N/A   Overcast
1:35 AM 24.8 °F 16.1 °F 24.8 °F 100% 29.95 in 10.0 mi SE 8.1 mph - N/A   Overcast
1:55 AM 24.8 °F 16.1 °F 23.0 °F 93% 29.94 in 10.0 mi SE 8.1 mph - N/A   Overcast
2:15 AM 24.8 °F 14.6 °F 23.0 °F 93% 29.93 in 10.0 mi SE 10.4 mph - N/A   Overcast
2:35 AM 24.8 °F 14.6 °F 21.2 °F 86% 29.94 in 10.0 mi SE 10.4 mph - N/A   Overcast
2:55 AM 24.8 °F 14.6 °F 21.2 °F 86% 29.93 in 10.0 mi SE 10.4 mph - N/A   Mostly Cloudy
3:15 AM 23.0 °F 13.1 °F 21.2 °F 93% 29.92 in 8.0 mi SSE 9.2 mph - N/A   Partly Cloudy
3:35 AM 23.0 °F 11.7 °F 21.2 °F 93% 29.91 in 8.0 mi SE 11.5 mph - N/A   Clear
3:55 AM 23.0 °F 11.1 °F 21.2 °F 93% 29.89 in 7.0 mi SSE 12.7 mph - N/A   Clear
4:15 AM 23.0 °F 11.1 °F 21.2 °F 93% 29.89 in 8.0 mi SSE 12.7 mph - N/A   Clear
4:35 AM 23.0 °F 10.6 °F 21.2 °F 93% 29.88 in 8.0 mi SSE 13.8 mph - N/A   Clear
4:55 AM 21.2 °F 8.3 °F 19.4 °F 93% 29.87 in 8.0 mi SSE 13.8 mph 18.4 mph N/A   Clear
5:15 AM 21.2 °F 8.9 °F 19.4 °F 93% 29.87 in 8.0 mi SSE 12.7 mph - N/A   Clear
5:35 AM 21.2 °F 9.5 °F 19.4 °F 93% 29.87 in 7.0 mi South 11.5 mph - N/A   Clear
5:55 AM 21.2 °F 9.5 °F 19.4 °F 93% 29.86 in 7.0 mi SSE 11.5 mph - N/A   Clear
6:15 AM 21.2 °F 9.5 °F 19.4 °F 93% 29.86 in 7.0 mi SSE 11.5 mph - N/A   Clear
6:35 AM 21.2 °F 8.9 °F 17.6 °F 86% 29.85 in 6.0 mi SSE 12.7 mph - N/A   Clear
6:55 AM 19.4 °F 7.9 °F 17.6 °F 93% 29.84 in 6.0 mi SSE 10.4 mph - N/A   Clear
7:15 AM 19.4 °F 6.6 °F 17.6 °F 93% 29.83 in 5.0 mi SSE 12.7 mph - N/A   Clear
7:35 AM 19.4 °F 6.6 °F 17.6 °F 93% 29.83 in 5.0 mi SSE 12.7 mph - N/A   Clear
7:55 AM 19.4 °F 6.6 °F 17.6 °F 93% 29.82 in 5.0 mi SSE 12.7 mph - N/A   Clear
8:15 AM 19.4 °F 7.2 °F 17.6 °F 93% 29.81 in 5.0 mi SSE 11.5 mph - N/A   Clear
8:35 AM 19.4 °F 7.2 °F 17.6 °F 93% 29.81 in 6.0 mi SSE 11.5 mph - N/A   Clear
8:55 AM 21.2 °F 8.3 °F 19.4 °F 93% 29.80 in 7.0 mi SSE 13.8 mph - N/A   Clear
9:15 AM 21.2 °F 7.3 °F 19.4 °F 93% 29.80 in 7.0 mi SSE 16.1 mph - N/A   Clear
9:35 AM 23.0 °F 10.6 °F 19.4 °F 86% 29.79 in 8.0 mi SSE 13.8 mph - N/A   Clear
9:55 AM 24.8 °F 14.6 °F 19.4 °F 80% 29.78 in 8.0 mi SSE 10.4 mph - N/A   Clear
10:15 AM 24.8 °F 11.1 °F 19.4 °F 80% 29.77 in 9.0 mi SSE 18.4 mph 23.0 mph N/A   Clear
10:35 AM 24.8 °F 11.9 °F 21.2 °F 86% 29.76 in 9.0 mi SSE 16.1 mph 19.6 mph N/A   Clear
10:55 AM 26.6 °F 14.3 °F 21.2 °F 80% 29.74 in 9.0 mi SSE 16.1 mph - N/A   Clear
11:15 AM 26.6 °F 13.8 °F 21.2 °F 80% 29.73 in 8.0 mi SSE 17.3 mph - N/A   Clear
11:35 AM 28.4 °F 15.8 °F 23.0 °F 80% 29.73 in 9.0 mi SSE 18.4 mph - N/A   Clear
11:55 AM 28.4 °F 15.8 °F 23.0 °F 80% 29.72 in 9.0 mi SSE 18.4 mph - N/A   Clear
12:15 PM 30.2 °F 18.9 °F 24.8 °F 80% 29.70 in 10.0 mi SSE 16.1 mph 20.7 mph N/A   Clear
12:35 PM 30.2 °F 18.5 °F 26.6 °F 86% 29.68 in 10.0 mi SSE 17.3 mph - N/A   Clear
12:55 PM 32.0 °F 20.8 °F 26.6 °F 80% 29.66 in 10.0 mi SSE 17.3 mph 25.3 mph N/A   Clear
1:15 PM 33.8 °F 23.2 °F 26.6 °F 75% 29.65 in 10.0 mi SSE 17.3 mph - N/A   Clear
1:35 PM 33.8 °F 22.8 °F 28.4 °F 81% 29.63 in 10.0 mi SSE 18.4 mph - N/A   Clear
1:55 PM 35.6 °F 25.2 °F 28.4 °F 75% 29.61 in 10.0 mi SSE 18.4 mph 25.3 mph N/A   Clear
2:15 PM 35.6 °F 24.5 °F 28.4 °F 75% 29.59 in 10.0 mi SSE 20.7 mph 24.2 mph N/A   Clear
2:35 PM 35.6 °F 25.9 °F 28.4 °F 75% 29.58 in 10.0 mi South 16.1 mph 25.3 mph N/A   Clear
2:55 PM 35.6 °F 25.9 °F 28.4 °F 75% 29.57 in 10.0 mi SSE 16.1 mph 24.2 mph N/A   Clear
3:15 PM 35.6 °F 25.5 °F 30.2 °F 81% 29.56 in 10.0 mi South 17.3 mph 23.0 mph N/A   Clear
3:35 PM 37.4 °F 28.2 °F 30.2 °F 75% 29.56 in 10.0 mi South 16.1 mph 23.0 mph N/A   Clear
3:55 PM 37.4 °F 27.8 °F 30.2 °F 75% 29.55 in 10.0 mi South 17.3 mph - N/A   Clear
4:15 PM 37.4 °F 28.2 °F 30.2 °F 75% 29.55 in 10.0 mi South 16.1 mph - N/A   Clear
4:35 PM 37.4 °F 28.5 °F 30.2 °F 75% 29.54 in 10.0 mi South 15.0 mph - N/A   Clear
4:55 PM 37.4 °F 28.9 °F 30.2 °F 75% 29.53 in 10.0 mi South 13.8 mph - N/A   Clear
5:15 PM 39.2 °F 31.2 °F 30.2 °F 70% 29.53 in 10.0 mi South 13.8 mph - N/A   Clear
5:35 PM 37.4 °F 28.5 °F 30.2 °F 75% 29.52 in 10.0 mi South 15.0 mph - N/A   Clear
5:55 PM 37.4 °F 28.9 °F 30.2 °F 75% 29.51 in 10.0 mi South 13.8 mph - N/A   Clear
6:15 PM 37.4 °F 28.9 °F 30.2 °F 75% 29.52 in 10.0 mi South 13.8 mph 17.3 mph N/A   Clear
6:35 PM 39.2 °F 30.8 °F 32.0 °F 75% 29.51 in 10.0 mi South 15.0 mph 23.0 mph N/A   Clear
6:55 PM 39.2 °F 30.5 °F 30.2 °F 70% 29.51 in 10.0 mi South 16.1 mph - N/A   Clear
7:15 PM 39.2 °F 30.5 °F 30.2 °F 70% 29.51 in 10.0 mi South 16.1 mph 20.7 mph N/A   Clear
7:35 PM 39.2 °F 32.5 °F 30.2 °F 70% 29.51 in 10.0 mi South 10.4 mph - N/A   Clear
7:55 PM 37.4 °F 32.1 °F 30.2 °F 75% 29.51 in 10.0 mi SW 6.9 mph - N/A   Clear
8:15 PM 37.4 °F 31.4 °F 30.2 °F 75% 29.52 in 10.0 mi South 8.1 mph - N/A   Clear
8:35 PM 37.4 °F 30.3 °F 30.2 °F 75% 29.51 in 10.0 mi South 10.4 mph - N/A   Clear
8:55 PM 35.6 °F 29.9 °F 30.2 °F 81% 29.52 in 10.0 mi SSW 6.9 mph - N/A   Clear
9:15 PM 35.6 °F 29.9 °F 30.2 °F 81% 29.52 in 10.0 mi SSW 6.9 mph - N/A   Clear
9:35 PM 35.6 °F 29.2 °F 30.2 °F 81% 29.52 in 10.0 mi SW 8.1 mph - N/A   Clear
9:55 PM 35.6 °F 30.7 °F 30.2 °F 81% 29.53 in 10.0 mi WSW 5.8 mph - N/A   Clear
10:15 PM 33.8 °F 28.6 °F 30.2 °F 87% 29.52 in 10.0 mi WSW 5.8 mph - N/A   Clear
10:35 PM 33.8 °F 27.7 °F 30.2 °F 87% 29.54 in 10.0 mi West 6.9 mph - N/A   Clear
10:55 PM 33.8 °F 27.0 °F 30.2 °F 87% 29.55 in 10.0 mi WNW 8.1 mph - N/A   Clear
11:15 PM 33.8 °F 28.6 °F 30.2 °F 87% 29.55 in 10.0 mi NW 5.8 mph - N/A   Clear
11:35 PM 30.2 °F 25.4 °F 28.4 °F 93% 29.55 in 10.0 mi West 4.6 mph - N/A   Clear
11:55 PM 32.0 °F 25.6 °F 28.4 °F 87% 29.56 in 10.0 mi West 6.9 mph - N/A   Clear